Time;durP1;ratioP1;P1;durP2;ratioP2;P2;SDS_P1;SDS_P2;PMS_P1;PMS_P2;Temp;Humidity;BMP_temperature;BMP_pressure;BME280_temperature;BME280_humidity;BME280_pressure;Samples;Min_cycle;Max_cycle;Signal;HPM_P1;HPM_P2
2022/11/13 00:00:27;;;;;;;0.60;0.60;;;;;;;4.32;100.00;103146.94;10590091;28;20059;-77
2022/11/13 00:05:48;;;;;;;;;;;;;;;4.27;100.00;103145.66;10590757;28;20089;-77
2022/11/13 00:11:17;;;;;;;0.10;0.10;;;;;;;4.23;100.00;103133.38;10588952;28;19924;-77
2022/11/13 00:16:38;;;;;;;0.20;0.20;;;;;;;4.19;100.00;103136.44;10572423;28;20040;-77
2022/11/13 00:21:59;;;;;;;0.25;0.25;;;;;;;3.85;100.00;103131.78;10589554;28;20044;-77
2022/11/13 00:27:19;;;;;;;0.80;0.63;;;;;;;3.86;100.00;103131.03;10543855;28;20051;-77
2022/11/13 00:32:39;;;;;;;0.47;0.45;;;;;;;3.86;100.00;103127.56;10574308;28;20040;-77
2022/11/13 00:38:00;;;;;;;0.98;0.43;;;;;;;3.95;100.00;103124.16;10574771;28;20060;-77
2022/11/13 00:43:22;;;;;;;1.35;0.70;;;;;;;3.95;100.00;103115.63;10590160;28;20040;-77
2022/11/13 00:48:43;;;;;;;0.57;0.45;;;;;;;3.85;100.00;103113.00;10590469;28;20088;-77
2022/11/13 00:54:03;;;;;;;0.63;0.63;;;;;;;3.96;100.00;103112.34;10589731;28;20044;-77
2022/11/13 00:59:23;;;;;;;0.20;0.20;;;;;;;3.84;100.00;103111.22;10587779;28;20072;-77
2022/11/13 01:04:44;;;;;;;0.20;0.20;;;;;;;3.46;100.00;103110.47;10587076;28;20483;-77
2022/11/13 01:10:05;;;;;;;0.30;0.30;;;;;;;3.29;100.00;103105.53;10585958;28;20052;-77
2022/11/13 01:15:25;;;;;;;0.43;0.43;;;;;;;3.31;100.00;103104.00;10585115;28;20028;-77
2022/11/13 01:20:46;;;;;;;1.35;0.43;;;;;;;3.56;100.00;103108.75;10561495;28;20052;-77
2022/11/13 01:26:26;;;;;;;4.25;0.95;;;;;;;3.30;100.00;103117.50;10547449;28;20072;-77
2022/11/13 01:31:47;;;;;;;1.17;0.50;;;;;;;3.13;100.00;103100.66;10555249;28;20068;-77
2022/11/13 01:37:07;;;;;;;;;;;;;;;2.94;100.00;103090.47;10562121;28;20052;-77
2022/11/13 01:42:27;;;;;;;1.20;0.80;;;;;;;2.90;100.00;103090.91;10561896;28;19920;-76
2022/11/13 01:54:32;;;;;;;0.60;0.60;;;;;;;2.96;100.00;103083.84;10537128;28;20044;-77
2022/11/13 01:59:57;;;;;;;0.32;0.32;;;;;;;2.86;100.00;103079.53;10537631;28;20052;-77
2022/11/13 02:05:18;;;;;;;0.50;0.47;;;;;;;2.79;100.00;103078.06;10575401;28;20040;-77
2022/11/13 02:10:38;;;;;;;0.47;0.45;;;;;;;2.65;100.00;103070.81;10577886;28;20052;-77
2022/11/13 02:22:51;;;;;;;;;;;;;;;2.80;100.00;103069.69;10575682;28;19912;-77
2022/11/13 02:28:11;;;;;;;0.90;0.68;;;;;;;2.83;100.00;103057.25;10576176;28;19928;-77
2022/11/13 02:33:32;;;;;;;1.15;0.88;;;;;;;2.69;100.00;103055.09;10549478;28;20068;-77
2022/11/13 02:38:56;;;;;;;0.43;0.43;;;;;;;2.79;100.00;103049.19;10564417;28;20060;-76
2022/11/13 02:44:16;;;;;;;0.60;0.60;;;;;;;3.08;100.00;103046.78;10562694;28;20036;-76
2022/11/13 02:49:36;;;;;;;0.85;0.60;;;;;;;3.23;100.00;103048.91;10564486;28;20044;-76
2022/11/13 02:54:56;;;;;;;0.73;0.73;;;;;;;3.12;100.00;103041.19;10564408;28;20519;-77
2022/11/13 03:00:17;;;;;;;0.20;0.20;;;;;;;2.99;100.00;103034.06;10566109;28;20032;-76
2022/11/13 03:05:38;;;;;;;;;;;;;;;2.83;100.00;103039.44;10564470;28;20048;-76
2022/11/13 03:10:58;;;;;;;0.68;0.50;;;;;;;2.88;100.00;103027.13;10575767;28;19919;-77
2022/11/13 03:16:18;;;;;;;0.40;0.20;;;;;;;2.70;100.00;103028.88;10575301;28;20036;-77
2022/11/13 03:21:38;;;;;;;0.10;0.10;;;;;;;2.66;100.00;103011.53;10567991;28;20067;-76
2022/11/13 03:26:59;;;;;;;0.10;0.10;;;;;;;2.67;100.00;103011.69;10579241;28;20052;-77
2022/11/13 03:32:19;;;;;;;1.40;1.30;;;;;;;2.80;100.00;103008.59;10577897;28;20040;-77
2022/11/13 03:37:39;;;;;;;0.38;0.30;;;;;;;2.77;100.00;103000.69;10587486;28;20044;-76
2022/11/13 03:42:59;;;;;;;0.77;0.38;;;;;;;2.49;100.00;102998.16;10585702;28;20044;-76
2022/11/13 03:48:19;;;;;;;1.10;0.73;;;;;;;2.59;100.00;102993.91;10565506;28;20515;-77
2022/11/13 03:53:40;;;;;;;0.90;0.75;;;;;;;2.65;100.00;102982.63;10574590;28;20044;-76
2022/11/13 03:59:00;;;;;;;0.30;0.20;;;;;;;2.73;100.00;102980.78;10575214;28;20048;-76
2022/11/13 04:04:20;;;;;;;0.38;0.38;;;;;;;2.42;100.00;102974.53;10572768;28;20414;-76
2022/11/13 04:09:41;;;;;;;0.47;0.47;;;;;;;2.38;100.00;102981.88;10574418;28;20044;-77
2022/11/13 04:15:01;;;;;;;0.40;0.40;;;;;;;2.15;100.00;102972.13;10557175;28;20040;-76
2022/11/13 04:20:21;;;;;;;0.47;0.43;;;;;;;2.30;100.00;102971.75;10563216;28;20270;-76
2022/11/13 04:25:43;;;;;;;0.60;0.55;;;;;;;2.40;100.00;102966.78;10587305;28;20040;-77
2022/11/13 04:31:03;;;;;;;0.75;0.73;;;;;;;2.46;100.00;102958.78;10564486;28;20048;-77
2022/11/13 04:36:24;;;;;;;1.50;0.50;;;;;;;2.58;100.00;102954.84;10545865;28;20036;-77
2022/11/13 04:47:22;;;;;;;0.10;0.10;;;;;;;2.28;100.00;102942.72;10553160;28;20048;-76
2022/11/13 04:52:43;;;;;;;0.10;0.10;;;;;;;2.24;100.00;102936.47;10553792;28;20036;-76
2022/11/13 04:58:03;;;;;;;0.93;0.15;;;;;;;2.13;100.00;102935.47;10514883;28;20052;-76
2022/11/13 05:03:23;;;;;;;0.35;0.35;;;;;;;1.93;100.00;102931.09;10555301;28;20071;-77
2022/11/13 05:08:44;;;;;;;0.45;0.43;;;;;;;2.19;100.00;102923.34;10564063;28;20079;-76
2022/11/13 05:14:04;;;;;;;0.57;0.50;;;;;;;2.24;100.00;102927.94;10560856;28;20068;-77
2022/11/13 05:19:25;;;;;;;0.63;0.63;;;;;;;2.03;100.00;102917.59;10554316;28;20495;-76
2022/11/13 05:24:45;;;;;;;0.57;0.53;;;;;;;2.03;100.00;102915.03;10552823;28;20040;-76
2022/11/13 05:30:07;;;;;;;0.10;0.10;;;;;;;1.87;100.00;102902.53;10536391;28;20060;-76
2022/11/13 05:35:28;;;;;;;0.28;0.28;;;;;;;1.99;100.00;102902.78;10525749;28;20453;-76
2022/11/13 05:40:48;;;;;;;0.77;0.60;;;;;;;1.72;100.00;102897.78;10554450;28;20044;-77
2022/11/13 05:46:12;;;;;;;0.32;0.32;;;;;;;1.60;100.00;102900.84;10553097;28;20055;-77
2022/11/13 05:51:33;;;;;;;0.28;0.28;;;;;;;1.35;100.00;102881.63;10528067;28;20060;-77
2022/11/13 05:56:53;;;;;;;0.45;0.45;;;;;;;1.21;100.00;102877.78;10549164;28;20075;-76
2022/11/13 06:02:13;;;;;;;0.67;0.50;;;;;;;1.10;100.00;102891.06;10562439;28;20073;-77
2022/11/13 06:07:34;;;;;;;0.80;0.70;;;;;;;1.10;100.00;102886.00;10564355;28;20333;-77
2022/11/13 06:12:54;;;;;;;0.22;0.22;;;;;;;1.34;100.00;102872.19;10552513;28;20494;-77
2022/11/13 06:18:14;;;;;;;0.70;0.60;;;;;;;1.18;100.00;102874.94;10569869;28;20079;-76
2022/11/13 06:23:36;;;;;;;0.30;0.30;;;;;;;1.20;100.00;102867.44;10564719;28;20039;-76
2022/11/13 06:28:58;;;;;;;1.05;0.70;;;;;;;1.32;100.00;102868.66;10576749;28;20487;-76
2022/11/13 06:34:18;;;;;;;1.08;0.65;;;;;;;1.22;100.00;102860.88;10557078;28;20040;-76
2022/11/13 06:39:39;;;;;;;1.02;0.63;;;;;;;1.21;100.00;102877.78;10558112;28;20044;-77
2022/11/13 06:44:59;;;;;;;0.30;0.30;;;;;;;0.86;100.00;102880.31;10577769;28;20056;-77
2022/11/13 06:50:19;;;;;;;1.60;0.70;;;;;;;1.07;100.00;102878.97;10577402;28;20075;-77
2022/11/13 06:55:45;;;;;;;1.10;0.93;;;;;;;1.01;100.00;102875.84;10559743;28;20294;-77
2022/11/13 07:01:11;;;;;;;0.82;0.52;;;;;;;1.00;100.00;102866.44;10579843;28;20079;-77
2022/11/13 07:06:46;;;;;;;1.25;1.15;;;;;;;1.08;100.00;102855.38;10576199;28;20041;-76
2022/11/13 07:12:06;;;;;;;1.75;0.35;;;;;;;1.10;100.00;102858.06;10554443;28;20055;-77
2022/11/13 07:17:30;;;;;;;0.57;0.40;;;;;;;0.90;100.00;102848.53;10548271;28;20052;-76
2022/11/13 07:22:54;;;;;;;1.55;0.63;;;;;;;0.78;100.00;102855.88;10552346;28;20263;-77
2022/11/13 07:28:19;;;;;;;1.95;0.82;;;;;;;0.75;100.00;102858.09;10568659;28;20048;-78
2022/11/13 07:33:40;;;;;;;0.20;0.20;;;;;;;1.09;100.00;102857.19;10532935;28;20392;-78
2022/11/13 07:39:08;;;;;;;0.52;0.43;;;;;;;1.00;100.00;102863.03;10530380;28;20048;-78
2022/11/13 07:44:30;;;;;;;0.68;0.30;;;;;;;1.34;100.00;102863.69;10547676;28;20063;-78
2022/11/13 07:50:10;;;;;;;0.43;0.43;;;;;;;1.62;100.00;102864.66;10535365;28;20052;-78
2022/11/13 07:55:31;;;;;;;1.60;0.77;;;;;;;1.75;100.00;102859.06;10527096;28;20040;-77
2022/11/13 08:01:05;;;;;;;0.40;0.20;;;;;;;1.98;100.00;102866.31;10548871;28;20306;-78
2022/11/13 08:06:26;;;;;;;0.22;0.22;;;;;;;2.40;100.00;102875.19;10553978;28;20048;-77
2022/11/13 08:11:47;;;;;;;0.03;0.03;;;;;;;3.08;100.00;102878.69;10536990;28;20048;-78
2022/11/13 08:17:07;;;;;;;0.82;0.50;;;;;;;4.22;100.00;102887.53;10533764;28;20040;-78
2022/11/13 08:22:28;;;;;;;2.55;1.42;;;;;;;5.08;100.00;102888.56;10541182;28;20044;-78
2022/11/13 08:27:52;;;;;;;1.10;0.93;;;;;;;5.32;100.00;102880.19;10543194;28;20047;-78
2022/11/13 08:33:13;;;;;;;2.03;1.85;;;;;;;5.70;100.00;102867.81;10572068;28;20036;-78
2022/11/13 08:38:33;;;;;;;0.80;0.80;;;;;;;6.01;100.00;102847.19;10572990;28;20048;-77
2022/11/13 08:43:53;;;;;;;1.73;0.97;;;;;;;6.25;100.00;102834.47;10562157;28;20097;-78
2022/11/13 08:49:13;;;;;;;1.83;1.10;;;;;;;6.40;100.00;102819.38;10569071;28;20271;-78
2022/11/13 08:54:33;;;;;;;2.37;1.57;;;;;;;6.71;100.00;102787.41;10572878;28;20036;-77
2022/11/13 08:59:53;;;;;;;1.40;1.25;;;;;;;6.88;100.00;102763.91;10565497;28;20080;-77
2022/11/13 09:05:13;;;;;;;1.53;0.83;;;;;;;7.20;100.00;102734.47;10508243;28;20036;-78
2022/11/13 09:10:33;;;;;;;1.13;0.82;;;;;;;7.36;100.00;102712.47;10557337;28;20099;-77
2022/11/13 09:15:57;;;;;;;0.55;0.45;;;;;;;7.46;100.00;102679.84;10568482;28;20048;-77
2022/11/13 09:21:17;;;;;;;1.33;0.85;;;;;;;7.54;100.00;102646.13;10569684;28;20056;-78
2022/11/13 09:26:38;;;;;;;1.58;1.48;;;;;;;7.69;100.00;102621.47;10555478;28;20491;-77
2022/11/13 09:31:58;;;;;;;2.55;1.90;;;;;;;7.84;100.00;102539.50;10570798;28;20127;-77
2022/11/13 09:37:18;;;;;;;1.00;0.82;;;;;;;8.07;100.00;102537.50;10575049;28;20040;-78
2022/11/13 09:42:40;;;;;;;1.60;1.08;;;;;;;8.38;100.00;102523.94;10569923;28;20048;-78
2022/11/13 09:48:41;;;;;;;2.00;1.08;;;;;;;8.52;100.00;102497.47;10570583;28;20052;-77
2022/11/13 10:01:50;;;;;;;1.63;1.02;;;;;;;9.13;100.00;102473.56;10570482;28;20495;-77
2022/11/13 10:07:49;;;;;;;1.73;1.48;;;;;;;9.61;100.00;102447.91;10555950;28;20048;-78
2022/11/13 10:13:17;;;;;;;1.30;1.05;;;;;;;10.31;100.00;102433.59;10567451;28;20040;-78
2022/11/13 10:18:38;;;;;;;2.28;1.02;;;;;;;11.02;100.00;102403.63;10569377;28;20096;-78
2022/11/13 10:24:03;;;;;;;1.05;0.95;;;;;;;12.30;100.00;102387.88;10548415;28;20044;-78
2022/11/13 10:29:26;;;;;;;1.25;0.95;;;;;;;12.87;100.00;102375.53;10559803;28;20052;-77
2022/11/13 10:34:52;;;;;;;1.83;1.02;;;;;;;12.72;100.00;102361.19;10550980;28;20024;-77
2022/11/13 10:40:23;;;;;;;1.80;0.90;;;;;;;12.90;100.00;102360.13;10570211;28;20048;-77
2022/11/13 10:45:57;;;;;;;1.33;1.05;;;;;;;14.24;100.00;102340.88;10555510;28;20429;-78
2022/11/13 10:51:30;;;;;;;1.08;0.93;;;;;;;14.78;100.00;102323.63;10527136;28;20446;-78
2022/11/13 10:56:59;;;;;;;5.97;2.40;;;;;;;14.90;100.00;102322.28;10540943;28;20048;-78
2022/11/13 11:02:22;;;;;;;1.10;1.00;;;;;;;15.43;100.00;102321.25;10516305;28;20047;-77
2022/11/13 11:07:43;;;;;;;0.80;0.30;;;;;;;15.28;100.00;102311.28;10539645;28;20044;-77
2022/11/13 11:13:22;;;;;;;0.52;0.47;;;;;;;15.43;100.00;102304.75;10525491;28;20035;-77
2022/11/13 11:18:52;;;;;;;0.95;0.75;;;;;;;16.18;100.00;102299.03;10524684;28;20048;-78
2022/11/13 11:24:19;;;;;;;1.50;0.95;;;;;;;16.80;100.00;102284.84;10513371;28;20049;-78
2022/11/13 11:29:54;;;;;;;0.73;0.55;;;;;;;17.12;100.00;102276.88;10518484;28;20410;-78
2022/11/13 11:35:31;;;;;;;6.00;1.58;;;;;;;16.75;100.00;102260.44;10521019;28;20041;-78
2022/11/13 11:41:01;;;;;;;0.77;0.63;;;;;;;17.09;100.00;102255.09;10521426;28;20044;-78
2022/11/13 11:46:23;;;;;;;3.25;1.08;;;;;;;17.68;100.00;102257.13;10520426;28;20040;-77
2022/11/13 11:51:59;;;;;;;0.60;0.60;;;;;;;17.37;100.00;102251.34;10529389;28;20441;-78
2022/11/13 11:57:48;;;;;;;0.25;0.25;;;;;;;17.12;100.00;102250.84;10531760;28;20068;-77
2022/11/13 12:03:36;;;;;;;2.47;1.27;;;;;;;18.49;100.00;102238.44;10531892;28;20451;-78
2022/11/13 12:09:23;;;;;;;0.32;0.32;;;;;;;18.50;100.00;102224.53;10539207;28;20426;-77
2022/11/13 12:14:58;;;;;;;1.08;0.63;;;;;;;17.76;100.00;102221.63;10546328;28;20048;-77
2022/11/13 12:20:47;;;;;;;1.73;0.60;;;;;;;17.63;100.00;102210.97;10539411;28;20105;-77
2022/11/13 12:26:45;;;;;;;1.02;0.70;;;;;;;18.64;98.11;102202.97;10528296;28;20036;-77
2022/11/13 12:32:15;;;;;;;1.00;0.60;;;;;;;18.14;100.00;102181.41;10544881;28;20060;-76
2022/11/13 12:37:36;;;;;;;;;;;;;;;17.92;100.00;102173.22;10523712;28;20119;-77
2022/11/13 12:43:34;;;;;;;1.20;0.65;;;;;;;18.64;100.00;102164.72;10526788;28;19919;-76
2022/11/13 12:49:14;;;;;;;1.25;0.68;;;;;;;18.41;100.00;102156.56;10535986;28;20043;-76
2022/11/13 12:55:05;;;;;;;0.43;0.38;;;;;;;18.45;100.00;102153.16;10536153;28;20040;-77
2022/11/13 13:00:29;;;;;;;1.80;0.52;;;;;;;17.73;100.00;102146.00;10543155;28;20044;-77
2022/11/13 13:06:02;;;;;;;1.20;0.95;;;;;;;17.74;100.00;102142.53;10525860;28;20511;-76
2022/11/13 13:11:53;;;;;;;0.63;0.50;;;;;;;17.50;100.00;102131.72;10527935;28;20123;-76
2022/11/13 13:17:13;;;;;;;0.88;0.50;;;;;;;16.61;100.00;102131.78;10524575;28;20097;-77
2022/11/13 13:22:35;;;;;;;0.45;0.35;;;;;;;16.80;100.00;102122.63;10534012;28;20429;-76
2022/11/13 13:28:23;;;;;;;0.32;0.30;;;;;;;16.38;100.00;102103.56;10544435;28;20055;-77
2022/11/13 13:34:22;;;;;;;0.43;0.32;;;;;;;16.43;100.00;102091.50;10541658;28;20261;-77
2022/11/13 13:39:49;;;;;;;0.43;0.43;;;;;;;16.44;100.00;102082.88;10525831;28;20247;-76
2022/11/13 13:45:48;;;;;;;0.68;0.68;;;;;;;16.05;100.00;102083.78;10525610;28;20445;-76
2022/11/13 13:51:21;;;;;;;0.15;0.13;;;;;;;16.22;100.00;102068.56;10539248;28;20044;-76
2022/11/13 13:56:41;;;;;;;0.77;0.70;;;;;;;15.96;100.00;102066.25;10529496;28;20403;-77
2022/11/13 14:02:12;;;;;;;1.42;0.63;;;;;;;15.62;100.00;102067.16;10511131;28;20048;-77
2022/11/13 14:07:34;;;;;;;1.15;0.40;;;;;;;15.64;100.00;102065.50;10540363;28;20048;-77
2022/11/13 14:12:58;;;;;;;0.35;0.35;;;;;;;15.26;100.00;102068.94;10525673;28;20048;-76
2022/11/13 14:18:18;;;;;;;0.22;0.22;;;;;;;15.39;100.00;102080.47;10499151;28;20052;-76
2022/11/13 14:23:48;;;;;;;2.42;1.00;;;;;;;15.11;100.00;102064.22;10514763;28;20044;-77
2022/11/13 14:29:38;;;;;;;1.80;0.68;;;;;;;14.93;100.00;102063.75;10553406;28;20503;-76
2022/11/13 14:35:00;;;;;;;1.75;0.60;;;;;;;14.81;100.00;102062.56;10539359;28;20048;-77
2022/11/13 14:40:32;;;;;;;0.75;0.22;;;;;;;14.63;100.00;102059.44;10510750;28;20052;-77
2022/11/13 14:46:28;;;;;;;0.28;0.20;;;;;;;14.32;100.00;102053.41;10535152;28;20056;-76
2022/11/13 14:51:54;;;;;;;1.35;0.65;;;;;;;13.93;100.00;102055.72;10536341;28;20044;-76
2022/11/13 14:57:14;;;;;;;2.42;0.45;;;;;;;13.78;100.00;102045.75;10538833;28;20148;-76
2022/11/13 15:02:34;;;;;;;0.47;0.32;;;;;;;13.59;100.00;102049.47;10523663;28;20048;-76
2022/11/13 15:07:55;;;;;;;0.20;0.20;;;;;;;13.48;100.00;102040.50;10539234;28;20097;-76
2022/11/13 15:13:17;;;;;;;1.10;0.73;;;;;;;13.22;100.00;102035.31;10522212;28;20499;-76
2022/11/13 15:18:37;;;;;;;0.57;0.38;;;;;;;12.92;100.00;102038.63;10547130;28;20131;-76
2022/11/13 15:23:57;;;;;;;;;;;;;;;12.63;100.00;102040.19;10547529;28;20078;-77
2022/11/13 15:29:17;;;;;;;0.10;0.10;;;;;;;11.77;100.00;102043.00;10538911;28;19919;-76
2022/11/13 15:34:38;;;;;;;0.60;0.60;;;;;;;11.52;100.00;102037.75;10541031;28;20049;-77
2022/11/13 15:40:04;;;;;;;0.60;0.55;;;;;;;11.05;100.00;102047.88;10546927;28;20052;-76
2022/11/13 15:45:24;;;;;;;1.05;0.50;;;;;;;10.91;100.00;102052.44;10525996;28;20044;-77
2022/11/13 15:50:45;;;;;;;;;;;;;;;11.06;100.00;102044.44;10507802;28;20040;-77
2022/11/13 15:56:06;;;;;;;1.17;0.43;;;;;;;10.70;100.00;102028.31;10553196;28;19920;-77
2022/11/13 16:01:25;;;;;;;1.02;0.73;;;;;;;10.67;100.00;102020.44;10566200;28;20072;-77
2022/11/13 16:06:46;;;;;;;0.47;0.30;;;;;;;9.99;100.00;102015.69;10559902;28;20119;-77
2022/11/13 16:12:11;;;;;;;0.68;0.50;;;;;;;9.84;100.00;102019.31;10546417;28;20082;-77
2022/11/13 16:17:39;;;;;;;1.40;0.90;;;;;;;9.61;100.00;102009.63;10524409;28;20032;-77
2022/11/13 16:22:59;;;;;;;0.63;0.52;;;;;;;9.62;100.00;102008.81;10524413;28;20048;-77
2022/11/13 16:28:20;;;;;;;0.45;0.38;;;;;;;9.27;100.00;102008.00;10541367;28;20048;-77
2022/11/13 16:33:40;;;;;;;0.52;0.28;;;;;;;8.86;100.00;101995.72;10545129;28;20506;-76
2022/11/13 16:39:00;;;;;;;;;;;;;;;8.62;100.00;102005.66;10530780;28;20047;-76
2022/11/13 16:44:20;;;;;;;0.45;0.45;;;;;;;8.72;100.00;102007.00;10544537;28;19924;-77
2022/11/13 16:49:45;;;;;;;0.20;0.20;;;;;;;9.05;100.00;101996.63;10544599;28;20419;-77
2022/11/13 16:55:06;;;;;;;0.52;0.47;;;;;;;9.28;100.00;101978.88;10543358;28;20052;-77
2022/11/13 17:00:26;;;;;;;;;;;;;;;9.23;100.00;101988.06;10519983;28;20048;-76
2022/11/13 17:05:50;;;;;;;0.77;0.38;;;;;;;9.44;100.00;101970.25;10524574;28;19920;-76
2022/11/13 17:11:12;;;;;;;2.45;1.23;;;;;;;8.65;100.00;101977.53;10542582;28;20048;-77
2022/11/13 17:16:33;;;;;;;0.13;0.13;;;;;;;8.37;100.00;101980.34;10510380;28;20049;-76
2022/11/13 17:21:53;;;;;;;0.38;0.30;;;;;;;8.00;100.00;101988.66;10530386;28;20048;-76
2022/11/13 17:27:13;;;;;;;0.35;0.30;;;;;;;8.00;100.00;101975.84;10515913;28;20056;-76
2022/11/13 17:32:34;;;;;;;0.03;0.03;;;;;;;8.06;100.00;101971.03;10534225;28;20060;-76
2022/11/13 17:37:55;;;;;;;0.22;0.22;;;;;;;7.79;100.00;101981.53;10534045;28;20044;-76
2022/11/13 17:43:15;;;;;;;1.25;0.88;;;;;;;7.15;100.00;101995.97;10523864;28;20079;-76
2022/11/13 17:48:36;;;;;;;0.63;0.60;;;;;;;7.11;100.00;102008.56;10542455;28;20052;-77
2022/11/13 17:54:02;;;;;;;1.00;0.75;;;;;;;7.04;100.00;102026.91;10522765;28;20511;-76
2022/11/13 17:59:23;;;;;;;1.25;0.57;;;;;;;7.07;100.00;102027.09;10541523;28;20040;-75
2022/11/13 18:05:03;;;;;;;0.20;0.20;;;;;;;7.23;100.00;102024.63;10514659;28;20398;-75
2022/11/13 18:10:24;;;;;;;0.73;0.50;;;;;;;7.03;100.00;102031.16;10537398;28;20098;-75
2022/11/13 18:15:44;;;;;;;;;;;;;;;7.10;100.00;102028.16;10489087;28;20740;-76
2022/11/13 18:21:16;;;;;;;0.73;0.57;;;;;;;7.07;100.00;102032.22;10542316;28;20313;-76
2022/11/13 18:26:44;;;;;;;2.97;1.30;;;;;;;6.91;100.00;102041.56;10515468;28;20571;-76
2022/11/13 18:32:04;;;;;;;0.50;0.30;;;;;;;6.61;100.00;102038.06;10508667;28;20044;-76
2022/11/13 18:37:24;;;;;;;0.80;0.57;;;;;;;6.50;100.00;102037.41;10539588;28;20086;-76
2022/11/13 18:43:39;;;;;;;2.80;0.88;;;;;;;6.45;100.00;102028.56;10498197;28;20135;-77
2022/11/13 18:49:00;;;;;;;8.45;0.75;;;;;;;6.49;100.00;102021.16;10529807;28;20059;-76
2022/11/13 18:54:20;;;;;;;0.60;0.50;;;;;;;6.51;100.00;102008.47;10528122;28;20119;-76
2022/11/13 18:59:40;;;;;;;1.05;0.60;;;;;;;6.51;100.00;102003.34;10524044;28;20044;-76
2022/11/13 19:05:05;;;;;;;0.15;0.15;;;;;;;5.85;100.00;102003.59;10524972;28;21675;-76
2022/11/13 19:10:26;;;;;;;0.52;0.52;;;;;;;5.81;100.00;102016.06;10539566;28;20039;-75
2022/11/13 19:15:48;;;;;;;0.80;0.63;;;;;;;5.79;100.00;102021.09;10540290;28;20044;-76
2022/11/13 19:21:14;;;;;;;0.88;0.60;;;;;;;5.95;100.00;102017.81;10539826;28;20051;-76
2022/11/13 19:26:34;;;;;;;0.80;0.50;;;;;;;5.77;100.00;102003.91;10524286;28;20079;-76
2022/11/13 19:31:55;;;;;;;;;;;;;;;5.81;100.00;102010.97;10504083;28;20059;-76
2022/11/13 19:37:30;;;;;;;0.82;0.82;;;;;;;5.98;100.00;102000.13;10524014;28;19924;-76
2022/11/13 19:42:52;;;;;;;7.00;1.42;;;;;;;5.96;100.00;101985.44;10539705;28;20395;-76
2022/11/13 19:48:15;;;;;;;0.50;0.50;;;;;;;6.17;100.00;101978.25;10517953;28;20044;-76
2022/11/13 19:53:38;;;;;;;1.77;0.85;;;;;;;6.24;100.00;101967.59;10518708;28;20040;-76
2022/11/13 19:58:59;;;;;;;0.85;0.85;;;;;;;6.08;100.00;101955.56;10537433;28;20052;-76
2022/11/13 20:04:20;;;;;;;0.55;0.55;;;;;;;5.99;100.00;101961.00;10539985;28;20055;-76
2022/11/13 20:09:40;;;;;;;0.28;0.28;;;;;;;5.74;100.00;101961.09;10535053;28;20060;-75
2022/11/13 20:15:00;;;;;;;1.35;1.25;;;;;;;5.50;100.00;101957.88;10560177;28;20040;-76
2022/11/13 20:20:20;;;;;;;1.20;0.82;;;;;;;5.26;100.00;101968.28;10565138;28;20082;-77
2022/11/13 20:25:41;;;;;;;1.83;0.82;;;;;;;5.07;100.00;101967.13;10517789;28;20048;-75
2022/11/13 20:31:22;;;;;;;0.70;0.55;;;;;;;5.08;100.00;101976.56;10536380;28;20052;-75
2022/11/13 20:36:42;;;;;;;1.25;0.85;;;;;;;4.91;100.00;101974.53;10525061;28;20040;-77
2022/11/13 20:42:02;;;;;;;1.27;1.08;;;;;;;4.86;100.00;101981.03;10538088;28;20491;-77
2022/11/13 20:47:22;;;;;;;0.47;0.32;;;;;;;4.61;100.00;101969.16;10545116;28;20047;-77
2022/11/13 20:52:43;;;;;;;0.83;0.80;;;;;;;4.75;100.00;101972.66;10545214;28;20044;-77
2022/11/13 20:58:03;;;;;;;1.00;1.00;;;;;;;4.65;100.00;101960.94;10529623;28;20491;-76
2022/11/13 21:03:22;;;;;;;1.50;0.97;;;;;;;4.73;100.00;101969.09;10543251;28;20503;-76
2022/11/13 21:08:43;;;;;;;3.20;1.93;;;;;;;4.33;100.00;101969.84;10544721;28;20052;-76
2022/11/13 21:14:03;;;;;;;1.77;1.20;;;;;;;4.25;100.00;101969.31;10493911;28;20135;-77
2022/11/13 21:19:54;;;;;;;0.75;0.30;;;;;;;4.08;100.00;101974.94;10513218;28;20049;-77
2022/11/13 21:25:22;;;;;;;1.23;0.82;;;;;;;3.96;100.00;101970.72;10526740;28;20456;-77
2022/11/13 21:30:42;;;;;;;0.88;0.85;;;;;;;3.93;100.00;101972.16;10528422;28;20093;-77
2022/11/13 21:36:04;;;;;;;0.68;0.47;;;;;;;3.83;100.00;101967.22;10541626;28;20036;-77
2022/11/13 21:41:25;;;;;;;1.05;0.90;;;;;;;3.41;100.00;101964.28;10541348;28;20047;-77
2022/11/13 21:46:45;;;;;;;;;;;;;;;3.47;100.00;101983.41;10535535;28;20040;-77
2022/11/13 21:52:05;;;;;;;1.15;0.88;;;;;;;3.35;100.00;101972.34;10526983;28;19920;-77
2022/11/13 22:03:42;;;;;;;0.55;0.52;;;;;;;3.61;100.00;101965.72;10536592;28;20052;-76
2022/11/13 22:09:14;;;;;;;1.20;1.10;;;;;;;3.77;100.00;101962.56;10531667;28;20039;-77
2022/11/13 22:14:34;;;;;;;1.05;1.05;;;;;;;3.57;100.00;101958.59;10557938;28;20495;-77
2022/11/13 22:19:54;;;;;;;0.73;0.73;;;;;;;3.53;100.00;101946.44;10526578;28;20498;-77
2022/11/13 22:25:14;;;;;;;1.23;0.97;;;;;;;3.63;100.00;101939.56;10517693;28;20044;-77
2022/11/13 22:30:34;;;;;;;0.30;0.22;;;;;;;3.47;100.00;101946.88;10541162;28;20048;-78
2022/11/13 22:36:16;;;;;;;0.60;0.60;;;;;;;3.48;100.00;101944.44;10515159;28;20048;-77
2022/11/13 22:41:36;;;;;;;1.38;1.10;;;;;;;3.38;100.00;101951.31;10535066;28;20064;-77
2022/11/13 22:46:57;;;;;;;3.35;2.35;;;;;;;3.45;100.00;101962.06;10531721;28;20048;-77
2022/11/13 22:52:17;;;;;;;5.07;0.75;;;;;;;3.38;100.00;101949.66;10538965;28;20060;-77
2022/11/13 22:57:37;;;;;;;2.03;1.00;;;;;;;3.52;100.00;101962.50;10532793;28;20052;-77
2022/11/13 23:02:59;;;;;;;1.13;0.90;;;;;;;3.38;100.00;101958.94;10539329;28;20056;-77
2022/11/13 23:08:20;;;;;;;2.88;1.35;;;;;;;3.25;100.00;102041.22;10551467;28;20491;-78
2022/11/13 23:13:41;;;;;;;4.60;0.80;;;;;;;3.14;100.00;102043.88;10513035;28;20048;-77
2022/11/13 23:19:02;;;;;;;4.65;0.73;;;;;;;2.99;100.00;102027.44;10537189;28;20044;-77
2022/11/13 23:24:23;;;;;;;1.48;1.17;;;;;;;2.82;100.00;102019.44;10538639;28;20047;-77
2022/11/13 23:29:43;;;;;;;2.45;1.65;;;;;;;2.66;100.00;102012.31;10531995;28;20661;-78
2022/11/13 23:35:09;;;;;;;1.30;1.13;;;;;;;2.65;100.00;102012.16;10529361;28;20040;-77
2022/11/13 23:40:29;;;;;;;0.53;0.53;;;;;;;2.68;100.00;101999.69;10521374;28;20052;-77
2022/11/13 23:45:49;;;;;;;1.23;0.57;;;;;;;2.61;100.00;102002.53;10543739;28;20118;-77
2022/11/13 23:51:09;;;;;;;1.27;1.00;;;;;;;2.65;100.00;102005.44;10548622;28;20039;-77
2022/11/13 23:56:29;;;;;;;1.23;1.17;;;;;;;2.69;100.00;102007.41;10532103;28;20044;-77
